sensor_id;sensor_type;location;lat;lon;timestamp;pressure;altitude;pressure_sealevel;temperature;humidity
46614;BME280;32338;50.430;6.806;2023-03-22T00:01:13;66005.03;;;5.41;100.00
46614;BME280;32338;50.430;6.806;2023-03-22T00:03:41;66009.34;;;5.42;100.00
46614;BME280;32338;50.430;6.806;2023-03-22T00:06:08;66010.44;;;5.43;100.00
46614;BME280;32338;50.430;6.806;2023-03-22T00:08:35;66010.25;;;5.41;100.00
46614;BME280;32338;50.430;6.806;2023-03-22T00:11:05;66004.63;;;5.35;100.00
46614;BME280;32338;50.430;6.806;2023-03-22T00:13:32;66004.44;;;5.33;100.00
46614;BME280;32338;50.430;6.806;2023-03-22T00:16:00;66002.97;;;5.34;100.00
46614;BME280;32338;50.430;6.806;2023-03-22T00:18:27;65998.09;;;5.32;100.00
46614;BME280;32338;50.430;6.806;2023-03-22T00:20:56;66004.09;;;5.35;100.00
46614;BME280;32338;50.430;6.806;2023-03-22T00:23:24;66003.75;;;5.37;100.00
46614;BME280;32338;50.430;6.806;2023-03-22T00:25:51;66007.66;;;5.41;100.00
46614;BME280;32338;50.430;6.806;2023-03-22T00:28:18;66004.50;;;5.40;100.00
46614;BME280;32338;50.430;6.806;2023-03-22T00:30:50;66004.09;;;5.35;100.00
46614;BME280;32338;50.430;6.806;2023-03-22T00:33:19;66009.91;;;5.43;100.00
46614;BME280;32338;50.430;6.806;2023-03-22T00:35:50;66011.03;;;5.44;100.00
46614;BME280;32338;50.430;6.806;2023-03-22T00:38:17;66000.75;;;5.39;100.00
46614;BME280;32338;50.430;6.806;2023-03-22T00:40:44;66008.94;;;5.37;100.00
46614;BME280;32338;50.430;6.806;2023-03-22T00:43:11;66004.09;;;5.35;100.00
46614;BME280;32338;50.430;6.806;2023-03-22T00:45:39;65997.22;;;5.33;100.00
46614;BME280;32338;50.430;6.806;2023-03-22T00:48:07;66003.38;;;5.39;100.00
46614;BME280;32338;50.430;6.806;2023-03-22T00:50:36;66011.56;;;5.44;100.00
46614;BME280;32338;50.430;6.806;2023-03-22T00:53:03;66011.78;;;5.47;100.00
46614;BME280;32338;50.430;6.806;2023-03-22T00:55:31;66013.47;;;5.48;100.00
46614;BME280;32338;50.430;6.806;2023-03-22T00:57:58;66017.75;;;5.50;100.00
46614;BME280;32338;50.430;6.806;2023-03-22T01:00:25;66018.88;;;5.51;100.00
46614;BME280;32338;50.430;6.806;2023-03-22T01:02:52;66018.31;;;5.50;100.00
46614;BME280;32338;50.430;6.806;2023-03-22T01:05:24;66024.63;;;5.51;100.00
46614;BME280;32338;50.430;6.806;2023-03-22T01:07:54;66018.88;;;5.51;100.00
46614;BME280;32338;50.430;6.806;2023-03-22T01:10:21;66024.13;;;5.58;100.00
46614;BME280;32338;50.430;6.806;2023-03-22T01:12:48;66041.66;;;5.69;100.00
46614;BME280;32338;50.430;6.806;2023-03-22T01:15:15;66032.53;;;5.66;100.00
46614;BME280;32338;50.430;6.806;2023-03-22T01:17:42;66032.75;;;5.68;100.00
46614;BME280;32338;50.430;6.806;2023-03-22T01:20:10;66039.97;;;5.68;100.00
46614;BME280;32338;50.430;6.806;2023-03-22T01:22:37;66042.97;;;5.73;100.00
46614;BME280;32338;50.430;6.806;2023-03-22T01:25:06;66044.84;;;5.70;100.00
46614;BME280;32338;50.430;6.806;2023-03-22T01:27:33;66044.47;;;5.72;100.00
46614;BME280;32338;50.430;6.806;2023-03-22T01:30:00;66039.06;;;5.69;100.00
46614;BME280;32338;50.430;6.806;2023-03-22T01:32:27;66034.78;;;5.68;100.00
46614;BME280;32338;50.430;6.806;2023-03-22T01:34:53;66037.94;;;5.68;100.00
46614;BME280;32338;50.430;6.806;2023-03-22T01:37:20;66030.66;;;5.62;100.00
46614;BME280;32338;50.430;6.806;2023-03-22T01:39:49;66027.69;;;5.64;100.00
46614;BME280;32338;50.430;6.806;2023-03-22T01:42:17;66032.69;;;5.61;100.00
46614;BME280;32338;50.430;6.806;2023-03-22T01:45:25;66024.13;;;5.58;100.00
46614;BME280;32338;50.430;6.806;2023-03-22T01:47:58;66021.88;;;5.56;100.00
46614;BME280;32338;50.430;6.806;2023-03-22T01:50:26;66027.09;;;5.56;100.00
46614;BME280;32338;50.430;6.806;2023-03-22T01:52:55;66029.88;;;5.59;100.00
46614;BME280;32338;50.430;6.806;2023-03-22T01:55:23;66023.56;;;5.58;100.00
46614;BME280;32338;50.430;6.806;2023-03-22T01:57:54;66023.22;;;5.60;100.00
46614;BME280;32338;50.430;6.806;2023-03-22T02:00:21;66028.41;;;5.60;100.00
46614;BME280;32338;50.430;6.806;2023-03-22T02:02:50;66034.03;;;5.65;100.00
46614;BME280;32338;50.430;6.806;2023-03-22T02:05:18;66037.75;;;5.66;100.00
46614;BME280;32338;50.430;6.806;2023-03-22T02:07:47;66034.78;;;5.68;100.00
46614;BME280;32338;50.430;6.806;2023-03-22T02:10:16;66040.97;;;5.74;100.00
46614;BME280;32338;50.430;6.806;2023-03-22T02:12:58;66046.00;;;5.78;100.00
46614;BME280;32338;50.430;6.806;2023-03-22T02:15:34;66056.63;;;5.81;100.00
46614;BME280;32338;50.430;6.806;2023-03-22T02:18:13;66055.69;;;5.82;100.00
46614;BME280;32338;50.430;6.806;2023-03-22T02:21:15;66062.44;;;5.89;100.00
46614;BME280;32338;50.430;6.806;2023-03-22T02:27:17;66060.03;;;5.91;100.00
46614;BME280;32338;50.430;6.806;2023-03-22T02:29:59;66059.47;;;5.91;100.00
46614;BME280;32338;50.430;6.806;2023-03-22T02:32:52;66062.84;;;5.94;100.00
46614;BME280;32338;50.430;6.806;2023-03-22T02:35:37;66062.63;;;5.91;100.00
46614;BME280;32338;50.430;6.806;2023-03-22T02:38:17;66071.63;;;5.99;100.00
46614;BME280;32338;50.430;6.806;2023-03-22T02:40:53;66067.31;;;5.98;100.00
46614;BME280;32338;50.430;6.806;2023-03-22T02:43:28;66074.22;;;5.99;100.00
46614;BME280;32338;50.430;6.806;2023-03-22T02:46:05;66080.41;;;6.05;100.00
46614;BME280;32338;50.430;6.806;2023-03-22T02:48:39;66082.84;;;6.10;100.00
46614;BME280;32338;50.430;6.806;2023-03-22T02:51:11;66082.84;;;6.10;100.00
46614;BME280;32338;50.430;6.806;2023-03-22T02:53:43;66084.53;;;6.11;100.00
46614;BME280;32338;50.430;6.806;2023-03-22T02:56:15;66083.97;;;6.11;100.00
46614;BME280;32338;50.430;6.806;2023-03-22T02:58:46;66091.63;;;6.15;100.00
46614;BME280;32338;50.430;6.806;2023-03-22T03:01:18;66087.53;;;6.16;100.00
46614;BME280;32338;50.430;6.806;2023-03-22T03:03:48;66095.75;;;6.22;100.00
46614;BME280;32338;50.430;6.806;2023-03-22T03:06:17;66098.38;;;6.22;100.00
46614;BME280;32338;50.430;6.806;2023-03-22T03:08:47;66098.00;;;6.24;100.00
46614;BME280;32338;50.430;6.806;2023-03-22T03:11:16;66095.22;;;6.21;100.00
46614;BME280;32338;50.430;6.806;2023-03-22T03:13:45;66099.84;;;6.21;100.00
46614;BME280;32338;50.430;6.806;2023-03-22T03:16:15;66092.41;;;6.19;100.00
46614;BME280;32338;50.430;6.806;2023-03-22T03:18:50;66092.59;;;6.21;100.00
46614;BME280;32338;50.430;6.806;2023-03-22T03:21:28;66097.63;;;6.26;100.00
46614;BME280;32338;50.430;6.806;2023-03-22T03:24:07;66098.75;;;6.27;100.00
46614;BME280;32338;50.430;6.806;2023-03-22T03:26:42;66108.09;;;6.33;100.00
46614;BME280;32338;50.430;6.806;2023-03-22T03:29:16;66102.50;;;6.28;100.00
46614;BME280;32338;50.430;6.806;2023-03-22T03:31:51;66098.75;;;6.27;100.00
46614;BME280;32338;50.430;6.806;2023-03-22T03:34:24;66115.41;;;6.40;100.00
46614;BME280;32338;50.430;6.806;2023-03-22T03:36:55;66116.53;;;6.41;100.00
46614;BME280;32338;50.430;6.806;2023-03-22T03:39:25;66112.97;;;6.35;100.00
46614;BME280;32338;50.430;6.806;2023-03-22T03:41:56;66115.97;;;6.40;100.00
46614;BME280;32338;50.430;6.806;2023-03-22T03:44:24;66111.47;;;6.36;100.00
46614;BME280;32338;50.430;6.806;2023-03-22T03:46:53;66113.72;;;6.38;100.00
46614;BME280;32338;50.430;6.806;2023-03-22T03:49:22;66121.94;;;6.43;100.00
46614;BME280;32338;50.430;6.806;2023-03-22T03:51:51;66124.38;;;6.48;100.00
46614;BME280;32338;50.430;6.806;2023-03-22T03:54:18;66115.25;;;6.44;100.00
46614;BME280;32338;50.430;6.806;2023-03-22T03:56:46;66130.00;;;6.53;100.00
46614;BME280;32338;50.430;6.806;2023-03-22T03:59:14;66121.59;;;6.45;100.00
46614;BME280;32338;50.430;6.806;2023-03-22T04:01:42;66118.97;;;6.45;100.00
46614;BME280;32338;50.430;6.806;2023-03-22T04:04:16;66131.13;;;6.54;100.00
46614;BME280;32338;50.430;6.806;2023-03-22T04:06:42;66124.25;;;6.53;100.00
46614;BME280;32338;50.430;6.806;2023-03-22T04:09:09;66117.84;;;6.44;100.00
46614;BME280;32338;50.430;6.806;2023-03-22T04:11:36;66117.09;;;6.41;100.00
46614;BME280;32338;50.430;6.806;2023-03-22T04:14:03;66112.03;;;6.37;100.00
46614;BME280;32338;50.430;6.806;2023-03-22T04:16:31;66115.03;;;6.42;100.00
46614;BME280;32338;50.430;6.806;2023-03-22T04:18:57;66115.00;;;6.35;100.00
46614;BME280;32338;50.430;6.806;2023-03-22T04:21:24;66100.81;;;6.26;100.00
46614;BME280;32338;50.430;6.806;2023-03-22T04:23:51;66103.97;;;6.27;100.00
46614;BME280;32338;50.430;6.806;2023-03-22T04:26:20;66105.88;;;6.31;100.00
46614;BME280;32338;50.430;6.806;2023-03-22T04:28:46;66110.00;;;6.37;100.00
46614;BME280;32338;50.430;6.806;2023-03-22T04:31:13;66122.72;;;6.46;100.00
46614;BME280;32338;50.430;6.806;2023-03-22T04:33:41;66137.50;;;6.62;100.00
46614;BME280;32338;50.430;6.806;2023-03-22T04:36:11;66130.94;;;6.52;100.00
46614;BME280;32338;50.430;6.806;2023-03-22T04:38:40;66132.41;;;6.51;100.00
46614;BME280;32338;50.430;6.806;2023-03-22T04:41:07;66136.75;;;6.59;100.00
46614;BME280;32338;50.430;6.806;2023-03-22T04:43:33;66130.78;;;6.56;100.00
46614;BME280;32338;50.430;6.806;2023-03-22T04:46:04;66134.50;;;6.57;100.00
46614;BME280;32338;50.430;6.806;2023-03-22T04:48:30;66137.66;;;6.58;100.00
46614;BME280;32338;50.430;6.806;2023-03-22T04:50:58;66130.41;;;6.58;100.00
46614;BME280;32338;50.430;6.806;2023-03-22T04:53:28;66137.50;;;6.62;100.00
46614;BME280;32338;50.430;6.806;2023-03-22T04:55:55;66147.00;;;6.64;100.00
46614;BME280;32338;50.430;6.806;2023-03-22T04:58:22;66135.81;;;6.61;100.00
46614;BME280;32338;50.430;6.806;2023-03-22T05:00:49;66139.41;;;6.67;100.00
46614;BME280;32338;50.430;6.806;2023-03-22T05:03:17;66133.38;;;6.56;100.00
46614;BME280;32338;50.430;6.806;2023-03-22T05:05:49;66141.44;;;6.66;100.00
46614;BME280;32338;50.430;6.806;2023-03-22T05:08:18;66141.44;;;6.66;100.00
46614;BME280;32338;50.430;6.806;2023-03-22T05:10:45;66135.59;;;6.58;100.00
46614;BME280;32338;50.430;6.806;2023-03-22T05:13:12;66130.56;;;6.54;100.00
46614;BME280;32338;50.430;6.806;2023-03-22T05:15:38;66121.22;;;6.47;100.00
46614;BME280;32338;50.430;6.806;2023-03-22T05:18:06;66129.78;;;6.51;100.00
46614;BME280;32338;50.430;6.806;2023-03-22T05:20:32;66128.31;;;6.52;100.00
46614;BME280;32338;50.430;6.806;2023-03-22T05:22:59;66128.53;;;6.54;100.00
46614;BME280;32338;50.430;6.806;2023-03-22T05:25:30;66142.16;;;6.62;100.00
46614;BME280;32338;50.430;6.806;2023-03-22T05:27:56;66145.72;;;6.68;100.00
46614;BME280;32338;50.430;6.806;2023-03-22T05:30:26;66135.25;;;6.60;100.00
46614;BME280;32338;50.430;6.806;2023-03-22T05:32:56;66138.06;;;6.63;100.00
46614;BME280;32338;50.430;6.806;2023-03-22T05:35:24;66141.78;;;6.64;100.00
46614;BME280;32338;50.430;6.806;2023-03-22T05:37:51;66139.75;;;6.64;100.00
46614;BME280;32338;50.430;6.806;2023-03-22T05:40:18;66141.78;;;6.64;100.00
46614;BME280;32338;50.430;6.806;2023-03-22T05:42:46;66143.81;;;6.63;100.00
46614;BME280;32338;50.430;6.806;2023-03-22T05:45:12;66142.16;;;6.62;100.00
46614;BME280;32338;50.430;6.806;2023-03-22T05:47:39;66138.78;;;6.59;100.00
46614;BME280;32338;50.430;6.806;2023-03-22T05:50:07;66143.28;;;6.63;100.00
46614;BME280;32338;50.430;6.806;2023-03-22T05:52:35;66140.88;;;6.65;100.00
46614;BME280;32338;50.430;6.806;2023-03-22T05:55:02;66144.06;;;6.66;100.00
46614;BME280;32338;50.430;6.806;2023-03-22T05:57:29;66145.34;;;6.70;100.00
46614;BME280;32338;50.430;6.806;2023-03-22T05:59:57;66159.00;;;6.77;100.00
46614;BME280;32338;50.430;6.806;2023-03-22T06:02:26;66163.69;;;6.84;100.00
46614;BME280;32338;50.430;6.806;2023-03-22T06:04:53;66158.44;;;6.77;100.00
46614;BME280;32338;50.430;6.806;2023-03-22T06:07:19;66164.63;;;6.82;100.00
46614;BME280;32338;50.430;6.806;2023-03-22T06:09:46;66175.28;;;6.92;100.00
46614;BME280;32338;50.430;6.806;2023-03-22T06:12:14;66169.31;;;6.89;100.00
46614;BME280;32338;50.430;6.806;2023-03-22T06:14:42;66169.31;;;6.89;100.00
46614;BME280;32338;50.430;6.806;2023-03-22T06:17:11;66175.84;;;6.93;100.00
46614;BME280;32338;50.430;6.806;2023-03-22T06:19:37;66174.16;;;6.91;100.00
46614;BME280;32338;50.430;6.806;2023-03-22T06:22:04;66185.94;;;7.02;100.00
46614;BME280;32338;50.430;6.806;2023-03-22T06:24:31;66182.59;;;6.99;100.00
46614;BME280;32338;50.430;6.806;2023-03-22T06:26:58;66184.47;;;7.03;100.00
46614;BME280;32338;50.430;6.806;2023-03-22T06:29:24;66208.44;;;7.23;100.00
46614;BME280;32338;50.430;6.806;2023-03-22T06:31:51;66199.84;;;7.20;100.00
46614;BME280;32338;50.430;6.806;2023-03-22T06:34:19;66226.41;;;7.39;100.00
46614;BME280;32338;50.430;6.806;2023-03-22T06:36:46;66216.50;;;7.33;100.00
46614;BME280;32338;50.430;6.806;2023-03-22T06:39:12;66213.91;;;7.33;100.00
46614;BME280;32338;50.430;6.806;2023-03-22T06:41:39;66214.03;;;7.28;100.00
46614;BME280;32338;50.430;6.806;2023-03-22T06:44:06;66207.16;;;7.26;100.00
46614;BME280;32338;50.430;6.806;2023-03-22T06:46:32;66206.94;;;7.24;100.00
46614;BME280;32338;50.430;6.806;2023-03-22T06:48:59;66201.94;;;7.26;100.00
46614;BME280;32338;50.430;6.806;2023-03-22T06:51:27;66216.31;;;7.30;100.00
46614;BME280;32338;50.430;6.806;2023-03-22T06:53:54;66222.66;;;7.38;100.00
46614;BME280;32338;50.430;6.806;2023-03-22T06:56:20;66222.31;;;7.40;100.00
46614;BME280;32338;50.430;6.806;2023-03-22T06:58:47;66227.53;;;7.40;100.00
46614;BME280;32338;50.430;6.806;2023-03-22T07:01:16;66224.72;;;7.38;100.00
46614;BME280;32338;50.430;6.806;2023-03-22T07:03:42;66221.19;;;7.39;100.00
46614;BME280;32338;50.430;6.806;2023-03-22T07:06:10;66230.19;;;7.47;100.00
46614;BME280;32338;50.430;6.806;2023-03-22T07:08:38;66221.34;;;7.35;100.00
46614;BME280;32338;50.430;6.806;2023-03-22T07:11:05;66218.94;;;7.37;100.00
46614;BME280;32338;50.430;6.806;2023-03-22T07:13:32;66233.16;;;7.45;100.00
46614;BME280;32338;50.430;6.806;2023-03-22T07:16:00;66224.94;;;7.40;100.00
46614;BME280;32338;50.430;6.806;2023-03-22T07:18:27;66233.00;;;7.50;100.00
46614;BME280;32338;50.430;6.806;2023-03-22T07:20:54;66230.53;;;7.45;100.00
46614;BME280;32338;50.430;6.806;2023-03-22T07:23:21;66235.59;;;7.50;100.00
46614;BME280;32338;50.430;6.806;2023-03-22T07:25:49;66238.75;;;7.51;100.00
46614;BME280;32338;50.430;6.806;2023-03-22T07:28:16;66249.81;;;7.58;100.00
46614;BME280;32338;50.430;6.806;2023-03-22T07:30:43;66253.00;;;7.66;100.00
46614;BME280;32338;50.430;6.806;2023-03-22T07:33:10;66244.78;;;7.61;100.00
46614;BME280;32338;50.430;6.806;2023-03-22T07:35:36;66258.28;;;7.73;100.00
46614;BME280;32338;50.430;6.806;2023-03-22T07:38:04;66251.91;;;7.65;100.00
46614;BME280;32338;50.430;6.806;2023-03-22T07:40:31;66255.25;;;7.68;100.00
46614;BME280;32338;50.430;6.806;2023-03-22T07:42:59;66253.59;;;7.67;100.00
46614;BME280;32338;50.430;6.806;2023-03-22T07:45:26;66261.25;;;7.71;100.00
46614;BME280;32338;50.430;6.806;2023-03-22T07:47:52;66251.91;;;7.65;100.00
46614;BME280;32338;50.430;6.806;2023-03-22T07:50:19;66250.00;;;7.61;100.00
46614;BME280;32338;50.430;6.806;2023-03-22T07:52:46;66241.41;;;7.58;100.00
46614;BME280;32338;50.430;6.806;2023-03-22T07:55:13;66241.03;;;7.53;100.00
46614;BME280;32338;50.430;6.806;2023-03-22T07:57:40;66235.59;;;7.50;100.00
46614;BME280;32338;50.430;6.806;2023-03-22T08:00:09;66247.03;;;7.63;100.00
46614;BME280;32338;50.430;6.806;2023-03-22T08:02:36;66256.75;;;7.67;100.00
46614;BME280;32338;50.430;6.806;2023-03-22T08:05:04;66265.75;;;7.75;100.00
46614;BME280;32338;50.430;6.806;2023-03-22T08:07:31;66249.84;;;7.66;100.00
46614;BME280;32338;50.430;6.806;2023-03-22T08:09:58;66246.47;;;7.62;100.00
46614;BME280;32338;50.430;6.806;2023-03-22T08:12:25;66239.16;;;7.56;100.00
46614;BME280;32338;50.430;6.806;2023-03-22T08:14:52;66245.34;;;7.61;100.00
46614;BME280;32338;50.430;6.806;2023-03-22T08:17:21;66261.25;;;7.71;100.00
46614;BME280;32338;50.430;6.806;2023-03-22T08:19:47;66257.72;;;7.73;100.00
46614;BME280;32338;50.430;6.806;2023-03-22T08:22:14;66253.78;;;7.69;100.00
46614;BME280;32338;50.430;6.806;2023-03-22T08:24:41;66254.13;;;7.67;100.00
46614;BME280;32338;50.430;6.806;2023-03-22T08:27:08;66257.72;;;7.73;100.00
46614;BME280;32338;50.430;6.806;2023-03-22T08:29:34;66272.28;;;7.79;100.00
46614;BME280;32338;50.430;6.806;2023-03-22T08:32:01;66271.91;;;7.81;100.00
46614;BME280;32338;50.430;6.806;2023-03-22T08:34:35;66281.13;;;7.92;100.00
46614;BME280;32338;50.430;6.806;2023-03-22T08:37:02;66278.88;;;7.90;100.00
46614;BME280;32338;50.430;6.806;2023-03-22T08:39:29;66278.31;;;7.89;100.00
46614;BME280;32338;50.430;6.806;2023-03-22T08:41:56;66284.84;;;7.93;100.00
46614;BME280;32338;50.430;6.806;2023-03-22T08:44:22;66295.16;;;8.05;100.00
46614;BME280;32338;50.430;6.806;2023-03-22T08:46:50;66304.72;;;8.14;100.00
46614;BME280;32338;50.430;6.806;2023-03-22T08:49:16;66308.88;;;8.20;100.00
46614;BME280;32338;50.430;6.806;2023-03-22T08:51:45;66306.81;;;8.20;100.00
46614;BME280;32338;50.430;6.806;2023-03-22T08:54:11;66317.88;;;8.28;100.00
46614;BME280;32338;50.430;6.806;2023-03-22T08:56:38;66337.72;;;8.41;100.00
46614;BME280;32338;50.430;6.806;2023-03-22T08:59:08;66326.09;;;8.33;100.00
46614;BME280;32338;50.430;6.806;2023-03-22T09:01:35;66337.34;;;8.43;100.00
46614;BME280;32338;50.430;6.806;2023-03-22T09:04:16;66327.97;;;8.37;100.00
46614;BME280;32338;50.430;6.806;2023-03-22T09:06:44;66318.41;;;8.28;100.00
46614;BME280;32338;50.430;6.806;2023-03-22T09:09:11;66326.28;;;8.36;100.00
46614;BME280;32338;50.430;6.806;2023-03-22T09:11:38;66328.16;;;8.33;100.00
46614;BME280;32338;50.430;6.806;2023-03-22T09:14:05;66342.44;;;8.48;100.00
46614;BME280;32338;50.430;6.806;2023-03-22T09:16:32;66353.13;;;8.58;100.00
46614;BME280;32338;50.430;6.806;2023-03-22T09:18:59;66364.16;;;8.66;100.00
46614;BME280;32338;50.430;6.806;2023-03-22T09:21:27;66358.38;;;8.65;100.00
46614;BME280;32338;50.430;6.806;2023-03-22T09:23:55;66379.75;;;8.85;100.00
46614;BME280;32338;50.430;6.806;2023-03-22T09:26:22;66367.75;;;8.71;100.00
46614;BME280;32338;50.430;6.806;2023-03-22T09:28:50;66382.00;;;8.87;100.00
46614;BME280;32338;50.430;6.806;2023-03-22T09:31:16;66375.41;;;8.76;100.00
46614;BME280;32338;50.430;6.806;2023-03-22T09:33:43;66378.63;;;8.84;100.00
46614;BME280;32338;50.430;6.806;2023-03-22T09:36:10;66398.88;;;9.02;100.00
46614;BME280;32338;50.430;6.806;2023-03-22T09:38:37;66424.00;;;9.23;100.00
46614;BME280;32338;50.430;6.806;2023-03-22T09:41:11;66442.94;;;9.38;100.00
46614;BME280;32338;50.430;6.806;2023-03-22T09:43:46;66426.25;;;9.25;100.00
46614;BME280;32338;50.430;6.806;2023-03-22T09:46:16;66415.19;;;9.17;100.00
46614;BME280;32338;50.430;6.806;2023-03-22T09:48:47;66414.63;;;9.17;100.00
46614;BME280;32338;50.430;6.806;2023-03-22T09:51:36;66402.81;;;9.06;100.00
46614;BME280;32338;50.430;6.806;2023-03-22T09:54:10;66403.94;;;9.07;100.00
46614;BME280;32338;50.430;6.806;2023-03-22T09:56:39;66413.31;;;9.13;100.00
46614;BME280;32338;50.430;6.806;2023-03-22T09:59:12;66429.28;;;9.30;100.00
46614;BME280;32338;50.430;6.806;2023-03-22T10:01:44;66418.00;;;9.20;100.00
46614;BME280;32338;50.430;6.806;2023-03-22T10:04:37;66428.50;;;9.27;100.00
46614;BME280;32338;50.430;6.806;2023-03-22T10:07:14;66430.19;;;9.29;100.00
46614;BME280;32338;50.430;6.806;2023-03-22T10:09:48;66457.78;;;9.54;100.00
46614;BME280;32338;50.430;6.806;2023-03-22T10:12:24;66441.09;;;9.41;100.00
46614;BME280;32338;50.430;6.806;2023-03-22T10:15:03;66454.59;;;9.53;100.00
46614;BME280;32338;50.430;6.806;2023-03-22T10:17:35;66457.25;;;9.61;100.00
46614;BME280;32338;50.430;6.806;2023-03-22T10:20:06;66458.72;;;9.60;100.00
46614;BME280;32338;50.430;6.806;2023-03-22T10:22:35;66453.47;;;9.52;100.00
46614;BME280;32338;50.430;6.806;2023-03-22T10:25:05;66451.38;;;9.46;100.00
46614;BME280;32338;50.430;6.806;2023-03-22T10:27:35;66447.09;;;9.44;100.00
46614;BME280;32338;50.430;6.806;2023-03-22T10:30:07;66466.03;;;9.59;100.00
46614;BME280;32338;50.430;6.806;2023-03-22T10:32:40;66460.81;;;9.59;100.00
46614;BME280;32338;50.430;6.806;2023-03-22T10:35:12;66457.78;;;9.54;100.00
46614;BME280;32338;50.430;6.806;2023-03-22T10:37:39;66454.59;;;9.53;100.00
46614;BME280;32338;50.430;6.806;2023-03-22T10:40:15;66451.78;;;9.51;100.00
46614;BME280;32338;50.430;6.806;2023-03-22T10:42:50;66454.03;;;9.53;100.00
46614;BME280;32338;50.430;6.806;2023-03-22T10:45:19;66452.91;;;9.52;100.00
46614;BME280;32338;50.430;6.806;2023-03-22T10:47:51;66466.78;;;9.62;100.00
46614;BME280;32338;50.430;6.806;2023-03-22T10:50:25;66463.63;;;9.62;100.00
46614;BME280;32338;50.430;6.806;2023-03-22T10:52:57;66466.22;;;9.62;100.00
46614;BME280;32338;50.430;6.806;2023-03-22T10:55:25;66462.69;;;9.63;100.00
46614;BME280;32338;50.430;6.806;2023-03-22T10:57:58;66469.03;;;9.64;100.00
46614;BME280;32338;50.430;6.806;2023-03-22T11:00:27;66480.50;;;9.77;100.00
46614;BME280;32338;50.430;6.806;2023-03-22T11:02:58;66489.50;;;9.85;100.00
46614;BME280;32338;50.430;6.806;2023-03-22T11:05:27;66484.81;;;9.86;100.00
46614;BME280;32338;50.430;6.806;2023-03-22T11:07:55;66512.19;;;10.01;100.00
46614;BME280;32338;50.430;6.806;2023-03-22T11:10:28;66502.44;;;9.97;100.00
46614;BME280;32338;50.430;6.806;2023-03-22T11:13:15;66519.16;;;10.10;100.00
46614;BME280;32338;50.430;6.806;2023-03-22T11:15:49;66514.28;;;10.08;100.00
46614;BME280;32338;50.430;6.806;2023-03-22T11:18:18;66511.09;;;10.00;100.00
46614;BME280;32338;50.430;6.806;2023-03-22T11:20:54;66494.38;;;9.87;100.00
46614;BME280;32338;50.430;6.806;2023-03-22T11:23:25;66477.88;;;9.77;100.00
46614;BME280;32338;50.430;6.806;2023-03-22T11:25:55;66487.06;;;9.81;100.00
46614;BME280;32338;50.430;6.806;2023-03-22T11:28:28;66475.81;;;9.70;100.00
46614;BME280;32338;50.430;6.806;2023-03-22T11:31:03;66476.34;;;9.71;100.00
46614;BME280;32338;50.430;6.806;2023-03-22T11:33:31;66476.34;;;9.71;100.00
46614;BME280;32338;50.430;6.806;2023-03-22T11:35:59;66480.13;;;9.79;100.00
46614;BME280;32338;50.430;6.806;2023-03-22T11:38:29;66499.81;;;9.90;100.00
46614;BME280;32338;50.430;6.806;2023-03-22T11:40:59;66497.94;;;9.93;100.00
46614;BME280;32338;50.430;6.806;2023-03-22T11:43:32;66485.19;;;9.84;100.00
46614;BME280;32338;50.430;6.806;2023-03-22T11:46:00;66453.66;;;9.55;100.00
46614;BME280;32338;50.430;6.806;2023-03-22T11:48:29;66468.84;;;9.62;100.00
46614;BME280;32338;50.430;6.806;2023-03-22T11:51:04;66466.78;;;9.62;100.00
46614;BME280;32338;50.430;6.806;2023-03-22T11:53:32;66470.53;;;9.63;100.00
46614;BME280;32338;50.430;6.806;2023-03-22T11:56:01;66470.16;;;9.65;100.00
46614;BME280;32338;50.430;6.806;2023-03-22T11:58:54;66459.66;;;9.58;100.00
46614;BME280;32338;50.430;6.806;2023-03-22T12:01:31;66449.16;;;9.51;100.00
46614;BME280;32338;50.430;6.806;2023-03-22T12:04:00;66455.53;;;9.52;100.00
46614;BME280;32338;50.430;6.806;2023-03-22T12:06:31;66464.31;;;9.57;100.00
46614;BME280;32338;50.430;6.806;2023-03-22T12:09:02;66461.34;;;9.60;100.00
46614;BME280;32338;50.430;6.806;2023-03-22T12:11:33;66463.03;;;9.61;100.00
46614;BME280;32338;50.430;6.806;2023-03-22T12:14:07;66468.28;;;9.61;100.00
46614;BME280;32338;50.430;6.806;2023-03-22T12:16:44;66460.63;;;9.64;100.00
46614;BME280;32338;50.430;6.806;2023-03-22T12:19:19;66464.72;;;9.55;100.00
46614;BME280;32338;50.430;6.806;2023-03-22T12:21:48;66457.81;;;9.61;100.00
46614;BME280;32338;50.430;6.806;2023-03-22T12:24:23;66465.84;;;9.64;100.00
46614;BME280;32338;50.430;6.806;2023-03-22T12:26:52;66463.03;;;9.61;100.00
46614;BME280;32338;50.430;6.806;2023-03-22T12:29:22;66474.50;;;9.74;100.00
46614;BME280;32338;50.430;6.806;2023-03-22T12:31:56;66470.38;;;9.68;100.00
46614;BME280;32338;50.430;6.806;2023-03-22T12:34:32;66465.28;;;9.63;100.00
46614;BME280;32338;50.430;6.806;2023-03-22T12:37:00;66463.41;;;9.59;100.00
46614;BME280;32338;50.430;6.806;2023-03-22T12:39:32;66465.28;;;9.63;100.00
46614;BME280;32338;50.430;6.806;2023-03-22T12:42:03;66487.06;;;9.81;100.00
46614;BME280;32338;50.430;6.806;2023-03-22T12:44:36;66474.50;;;9.74;100.00
46614;BME280;32338;50.430;6.806;2023-03-22T12:47:09;66488.38;;;9.84;100.00
46614;BME280;32338;50.430;6.806;2023-03-22T12:49:42;66477.31;;;9.77;100.00
46614;BME280;32338;50.430;6.806;2023-03-22T12:52:16;66491.56;;;9.85;100.00
46614;BME280;32338;50.430;6.806;2023-03-22T12:54:46;66491.00;;;9.84;100.00
46614;BME280;32338;50.430;6.806;2023-03-22T12:57:15;66480.69;;;9.80;100.00
46614;BME280;32338;50.430;6.806;2023-03-22T12:59:48;66462.47;;;9.61;100.00
46614;BME280;32338;50.430;6.806;2023-03-22T13:02:19;66461.16;;;9.57;100.00
46614;BME280;32338;50.430;6.806;2023-03-22T13:04:51;66454.97;;;9.51;100.00
46614;BME280;32338;50.430;6.806;2023-03-22T13:07:49;66444.84;;;9.42;100.00
46614;BME280;32338;50.430;6.806;2023-03-22T13:13:40;66460.03;;;9.56;100.00
46614;BME280;32338;50.430;6.806;2023-03-22T13:16:22;66457.97;;;9.56;100.00
46614;BME280;32338;50.430;6.806;2023-03-22T13:18:58;66463.81;;;9.64;100.00
46614;BME280;32338;50.430;6.806;2023-03-22T13:21:27;66464.31;;;9.57;100.00